Time;durP1;ratioP1;P1;durP2;ratioP2;P2;SDS_P1;SDS_P2;PMS_P1;PMS_P2;Temp;Humidity;BMP_temperature;BMP_pressure;BME280_temperature;BME280_humidity;BME280_pressure;Samples;Min_cycle;Max_cycle;Signal;HPM_P1;HPM_P2
2023/03/10 00:02:49;;;;;;;0.85;0.40;;;;;;;11.93;100.00;97865.38;8323272;28;20094;-59
2023/03/10 00:06:50;;;;;;;2.50;0.70;;;;;;;11.82;100.00;97870.41;8296187;28;20054;-59
2023/03/10 00:10:50;;;;;;;1.40;0.50;;;;;;;11.78;100.00;97863.75;8259923;28;20598;-59
2023/03/10 00:14:51;;;;;;;1.65;0.32;;;;;;;11.82;100.00;97854.19;8261026;28;20038;-59
2023/03/10 00:18:52;;;;;;;0.55;0.30;;;;;;;11.83;100.00;97855.00;8261184;28;20044;-59
2023/03/10 00:22:53;;;;;;;1.75;0.40;;;;;;;11.85;100.00;97853.75;8265892;28;20180;-60
2023/03/10 00:26:53;;;;;;;0.50;0.25;;;;;;;11.95;100.00;97860.59;8292437;28;20041;-54
2023/03/10 00:31:00;;;;;;;0.40;0.30;;;;;;;12.01;100.00;97859.75;8293342;28;20109;-54
2023/03/10 00:35:01;;;;;;;0.68;0.40;;;;;;;12.07;100.00;97840.75;8289970;28;20100;-54
2023/03/10 00:39:03;;;;;;;0.65;0.30;;;;;;;12.15;100.00;97862.16;8271033;28;20038;-54
2023/03/10 00:43:04;;;;;;;1.33;0.30;;;;;;;12.13;100.00;97853.41;8292670;28;20046;-54
2023/03/10 00:47:05;;;;;;;2.50;0.35;;;;;;;12.09;100.00;97859.47;8292537;28;20040;-54
2023/03/10 00:51:06;;;;;;;1.17;0.38;;;;;;;12.05;100.00;97858.25;8292622;28;20045;-54
2023/03/10 00:55:07;;;;;;;0.45;0.30;;;;;;;12.01;100.00;97863.25;8292359;28;20065;-55
2023/03/10 00:59:11;;;;;;;1.17;0.30;;;;;;;12.03;100.00;97857.63;8307556;28;20046;-54
2023/03/10 01:03:11;;;;;;;0.68;0.38;;;;;;;12.01;100.00;97848.91;8304947;28;20171;-54
2023/03/10 01:07:12;;;;;;;1.15;0.30;;;;;;;12.06;100.00;97849.91;8293098;28;20060;-54
2023/03/10 01:11:15;;;;;;;0.75;0.30;;;;;;;12.07;100.00;97850.75;8291631;28;20092;-53
2023/03/10 01:15:16;;;;;;;0.67;0.30;;;;;;;12.01;100.00;97849.72;8292113;28;20037;-54
2023/03/10 01:19:17;;;;;;;0.70;0.30;;;;;;;11.97;100.00;97836.81;8289681;28;20289;-53
2023/03/10 01:23:21;;;;;;;1.33;0.20;;;;;;;11.96;100.00;97835.19;8302371;28;20389;-53
2023/03/10 01:27:23;;;;;;;1.40;0.60;;;;;;;11.93;100.00;97832.91;8290612;28;20404;-54
2023/03/10 01:31:23;;;;;;;2.90;0.30;;;;;;;11.89;100.00;97838.75;8292717;28;20076;-53
2023/03/10 01:35:24;;;;;;;0.85;0.30;;;;;;;12.05;100.00;97831.19;8292624;28;20060;-53
2023/03/10 01:39:25;;;;;;;0.75;0.30;;;;;;;12.18;100.00;97829.25;8290928;28;20037;-53
2023/03/10 01:43:28;;;;;;;0.95;0.30;;;;;;;12.24;100.00;97820.25;8292172;28;20045;-53
2023/03/10 01:47:29;;;;;;;0.37;0.20;;;;;;;12.27;100.00;97832.53;8292890;28;20042;-53
2023/03/10 01:51:33;;;;;;;1.30;0.32;;;;;;;12.38;100.00;97815.59;8291355;28;20038;-52
2023/03/10 01:55:39;;;;;;;2.83;0.30;;;;;;;12.53;100.00;97826.97;8292456;28;20858;-53
2023/03/10 01:59:40;;;;;;;0.73;0.20;;;;;;;12.56;100.00;97829.22;8306379;28;20042;-53
2023/03/10 02:03:48;;;;;;;1.08;0.32;;;;;;;12.50;100.00;97835.53;8308669;28;20048;-53
2023/03/10 02:07:51;;;;;;;1.92;0.30;;;;;;;12.43;100.00;97840.13;8291826;28;20169;-55
2023/03/10 02:11:56;;;;;;;1.20;0.40;;;;;;;12.46;100.00;97845.97;8296036;28;20438;-53
2023/03/10 02:15:57;;;;;;;0.55;0.20;;;;;;;12.43;100.00;97850.97;8297767;28;20131;-54
2023/03/10 02:20:25;;;;;;;3.53;0.50;;;;;;;12.25;100.00;97856.28;8297880;28;20038;-53
2023/03/10 02:24:49;;;;;;;2.65;0.80;;;;;;;11.97;100.00;97850.38;8297129;28;20042;-54
2023/03/10 02:28:53;;;;;;;7.75;0.80;;;;;;;11.87;100.00;97834.59;8265612;28;20089;-54
2023/03/10 02:32:58;;;;;;;3.55;0.60;;;;;;;11.84;100.00;97830.41;8266228;28;20038;-54
2023/03/10 02:38:40;;;;;;;4.72;0.90;;;;;;;11.82;100.00;97824.41;8262363;28;20041;-54
2023/03/10 02:42:32;;;;;;;4.45;0.90;;;;;;;11.82;100.00;97821.69;8280296;28;20441;-53
2023/03/10 02:46:33;;;;;;;4.80;0.98;;;;;;;11.79;100.00;97822.13;8264622;28;20046;-52
2023/03/10 02:50:36;;;;;;;4.90;0.75;;;;;;;11.77;100.00;97821.50;8264645;28;20049;-53
2023/03/10 02:54:37;;;;;;;5.75;0.93;;;;;;;11.76;100.00;97810.88;8264273;28;20476;-54
2023/03/10 02:58:38;;;;;;;8.82;1.27;;;;;;;11.73;100.00;97817.56;8264494;28;20054;-53
2023/03/10 03:02:41;;;;;;;8.80;1.45;;;;;;;11.71;100.00;97819.66;8284979;28;20034;-52
2023/03/10 03:06:42;;;;;;;8.45;1.98;;;;;;;11.62;100.00;97810.09;8303228;28;20062;-52
2023/03/10 03:10:43;;;;;;;10.35;1.55;;;;;;;11.56;100.00;97810.91;8295990;28;20049;-53
2023/03/10 03:14:44;;;;;;;9.85;1.58;;;;;;;11.54;100.00;97807.63;8284524;28;20455;-54
2023/03/10 03:18:45;;;;;;;10.80;1.42;;;;;;;11.60;100.00;97811.34;8294201;28;20104;-54
2023/03/10 03:22:47;;;;;;;10.73;1.65;;;;;;;11.56;100.00;97816.34;8294335;28;20045;-59
2023/03/10 03:26:48;;;;;;;9.30;1.70;;;;;;;11.55;100.00;97820.09;8295611;28;20121;-59
2023/03/10 03:30:52;;;;;;;5.40;0.90;;;;;;;11.42;100.00;97820.13;8295685;28;20096;-59
2023/03/10 03:34:53;;;;;;;7.03;0.80;;;;;;;11.24;100.00;97819.13;8294663;28;20050;-54
2023/03/10 03:38:53;;;;;;;5.30;1.17;;;;;;;11.14;100.00;97808.75;8294978;28;20412;-53
2023/03/10 03:42:54;;;;;;;1.98;0.40;;;;;;;11.04;100.00;97789.41;8295212;28;20096;-54
2023/03/10 03:46:55;;;;;;;3.40;0.50;;;;;;;10.98;100.00;97784.84;8295127;28;20483;-59
2023/03/10 03:50:57;;;;;;;4.32;0.52;;;;;;;10.94;100.00;97789.00;8295533;28;20046;-58
2023/03/10 03:55:05;;;;;;;4.03;0.50;;;;;;;10.90;100.00;97787.78;8294859;28;20045;-58
2023/03/10 03:59:05;;;;;;;4.28;0.77;;;;;;;10.85;100.00;97774.03;8295292;28;20042;-59
2023/03/10 04:03:06;;;;;;;13.30;0.82;;;;;;;10.80;100.00;97768.41;8294754;28;20096;-53
2023/03/10 04:07:07;;;;;;;5.72;0.77;;;;;;;10.71;100.00;97771.56;8294586;28;20120;-54
2023/03/10 04:11:08;;;;;;;3.00;0.52;;;;;;;10.62;100.00;97768.25;8292055;28;20038;-53
2023/03/10 04:15:12;;;;;;;3.08;0.60;;;;;;;10.56;100.00;97763.69;8294687;28;20033;-53
2023/03/10 04:19:13;;;;;;;8.15;1.27;;;;;;;10.51;100.00;97771.56;8294543;28;20112;-52
2023/03/10 04:23:17;;;;;;;6.05;0.82;;;;;;;10.42;100.00;97762.00;8293526;28;20053;-54
2023/03/10 04:27:18;;;;;;;4.63;0.82;;;;;;;10.40;100.00;97749.75;8294452;28;20068;-54
2023/03/10 04:31:19;;;;;;;4.10;0.90;;;;;;;10.40;100.00;97747.84;8293965;28;20038;-53
2023/03/10 04:35:21;;;;;;;5.15;0.52;;;;;;;10.42;100.00;97748.50;8293432;28;20042;-59
2023/03/10 04:39:22;;;;;;;7.22;0.90;;;;;;;10.60;100.00;97743.31;8293985;28;20565;-59
2023/03/10 04:43:23;;;;;;;4.93;0.95;;;;;;;10.72;100.00;97747.03;8293753;28;20038;-59
2023/03/10 04:47:24;;;;;;;11.95;1.65;;;;;;;10.86;100.00;97740.56;8293743;28;20543;-59
2023/03/10 04:51:25;;;;;;;7.72;1.33;;;;;;;10.86;100.00;97737.88;8293880;28;20423;-59
2023/03/10 04:55:28;;;;;;;5.60;1.20;;;;;;;10.90;100.00;97738.28;8293192;28;20077;-59
2023/03/10 04:59:29;;;;;;;5.60;1.15;;;;;;;10.87;100.00;97731.44;8292853;28;20046;-60
2023/03/10 05:03:30;;;;;;;10.60;1.70;;;;;;;10.86;100.00;97728.94;8292127;28;20072;-60
2023/03/10 05:07:31;;;;;;;7.47;1.85;;;;;;;10.87;100.00;97728.72;8282268;28;20041;-60
2023/03/10 05:11:31;;;;;;;11.77;3.50;;;;;;;10.93;100.00;97722.50;8293344;28;20042;-60
2023/03/10 05:15:33;;;;;;;7.10;1.63;;;;;;;11.09;100.00;97711.22;8289957;28;20141;-61
2023/03/10 05:19:35;;;;;;;7.20;2.33;;;;;;;11.16;100.00;97713.91;8262589;28;20097;-60
2023/03/10 05:23:37;;;;;;;7.20;2.50;;;;;;;11.14;100.00;97718.69;8264699;28;20046;-60
2023/03/10 05:27:38;;;;;;;11.00;2.13;;;;;;;11.06;100.00;97706.22;8285800;28;20521;-60
2023/03/10 05:31:40;;;;;;;6.70;1.52;;;;;;;10.95;100.00;97714.97;8284321;28;20124;-60
2023/03/10 05:35:46;;;;;;;12.15;3.22;;;;;;;11.06;100.00;97706.22;8289061;28;20475;-60
2023/03/10 05:39:47;;;;;;;15.40;7.40;;;;;;;11.15;100.00;97702.25;8286955;28;20556;-60
2023/03/10 05:43:52;;;;;;;19.00;6.25;;;;;;;11.09;100.00;97722.03;8287166;28;20085;-55
2023/03/10 05:47:53;;;;;;;8.93;2.63;;;;;;;11.10;100.00;97720.97;8294189;28;20129;-55
2023/03/10 05:51:54;;;;;;;5.38;1.67;;;;;;;11.10;100.00;97718.28;8293104;28;20436;-56
2023/03/10 05:55:56;;;;;;;9.70;1.50;;;;;;;11.04;100.00;97719.13;8293982;28;20057;-55
2023/03/10 05:59:56;;;;;;;6.00;1.42;;;;;;;11.05;100.00;97728.91;8300702;28;20079;-53
2023/03/10 06:03:57;;;;;;;7.45;1.58;;;;;;;11.00;100.00;97717.03;8283194;28;20532;-54
2023/03/10 06:07:58;;;;;;;3.67;1.05;;;;;;;11.00;100.00;97717.88;8309047;28;20049;-54
2023/03/10 06:11:59;;;;;;;5.97;1.42;;;;;;;10.99;100.00;97716.25;8293793;28;20049;-54
2023/03/10 06:16:02;;;;;;;5.35;0.75;;;;;;;10.92;100.00;97715.41;8293727;28;20048;-53
2023/03/10 06:20:03;;;;;;;10.20;0.98;;;;;;;10.88;100.00;97721.44;8285513;28;20364;-54
2023/03/10 06:24:04;;;;;;;4.68;0.85;;;;;;;10.86;100.00;97716.25;8288633;28;20057;-60
2023/03/10 06:28:05;;;;;;;3.55;0.90;;;;;;;10.92;100.00;97725.41;8289876;28;20052;-60
2023/03/10 06:32:05;;;;;;;2.63;0.70;;;;;;;10.92;100.00;97718.09;8286448;28;20044;-60
2023/03/10 06:36:08;;;;;;;5.85;0.75;;;;;;;10.91;100.00;97718.31;8322224;28;20120;-60
2023/03/10 06:40:12;;;;;;;3.17;0.60;;;;;;;10.83;100.00;97716.66;8322353;28;20040;-55
2023/03/10 06:44:17;;;;;;;3.10;0.60;;;;;;;10.90;100.00;97727.47;8302316;28;20511;-54
2023/03/10 06:48:18;;;;;;;3.67;1.00;;;;;;;10.88;100.00;97727.69;8264013;28;20393;-54
2023/03/10 06:52:22;;;;;;;2.65;0.77;;;;;;;10.94;100.00;97721.44;8260612;28;20414;-53
2023/03/10 06:56:22;;;;;;;5.30;1.10;;;;;;;10.94;100.00;97717.91;8259203;28;20302;-53
2023/03/10 07:00:23;;;;;;;3.40;0.80;;;;;;;10.96;100.00;97711.25;8260175;28;20034;-52
2023/03/10 07:04:23;;;;;;;5.28;0.73;;;;;;;11.07;100.00;97721.41;8276631;28;20049;-54
2023/03/10 07:08:24;;;;;;;3.85;0.73;;;;;;;11.07;100.00;97712.47;8259505;28;20133;-54
2023/03/10 07:12:25;;;;;;;1.48;0.50;;;;;;;11.08;100.00;97723.09;8258754;28;20133;-54
2023/03/10 07:16:25;;;;;;;4.38;0.60;;;;;;;11.04;100.00;97734.53;8263656;28;20069;-54
2023/03/10 07:20:25;;;;;;;7.65;0.77;;;;;;;10.95;100.00;97739.31;8260367;28;20049;-54
2023/03/10 07:24:26;;;;;;;4.28;0.80;;;;;;;11.02;100.00;97737.44;8258449;28;20325;-54
2023/03/10 07:28:27;;;;;;;5.25;1.20;;;;;;;11.14;100.00;97735.75;8264725;28;20539;-53
2023/03/10 07:32:27;;;;;;;3.40;0.88;;;;;;;11.16;100.00;97749.88;8265216;28;20125;-54
2023/03/10 07:36:28;;;;;;;4.47;0.45;;;;;;;11.18;100.00;97753.19;8292167;28;20076;-59
2023/03/10 07:40:29;;;;;;;5.38;1.10;;;;;;;11.19;100.00;97760.25;8295902;28;20528;-60
2023/03/10 07:44:29;;;;;;;6.70;0.80;;;;;;;11.26;100.00;97766.47;8291742;28;20038;-59
2023/03/10 07:48:30;;;;;;;6.93;1.00;;;;;;;11.37;100.00;97756.88;8291509;28;20038;-59
2023/03/10 07:52:30;;;;;;;7.40;1.15;;;;;;;11.59;100.00;97769.91;8291595;28;20034;-59
2023/03/10 07:56:30;;;;;;;5.15;1.15;;;;;;;12.05;100.00;97766.19;8270470;28;20155;-59
2023/03/10 08:00:31;;;;;;;8.77;1.08;;;;;;;12.25;98.97;97772.31;8258610;28;20125;-59
2023/03/10 08:04:32;;;;;;;7.43;1.60;;;;;;;12.37;96.96;97759.72;8274537;28;20129;-59
2023/03/10 08:08:33;;;;;;;9.93;1.42;;;;;;;12.53;94.89;97751.09;8257319;28;20496;-59
2023/03/10 08:12:34;;;;;;;8.93;1.75;;;;;;;12.58;93.81;97762.06;8250139;28;20428;-59
2023/03/10 08:16:34;;;;;;;12.32;1.80;;;;;;;12.73;92.83;97770.72;8261789;28;20390;-60
2023/03/10 08:20:35;;;;;;;12.23;1.60;;;;;;;12.82;92.53;97762.09;8254507;28;20045;-59
2023/03/10 08:24:36;;;;;;;7.68;1.40;;;;;;;12.84;92.38;97765.41;8258837;28;20038;-60
2023/03/10 08:28:37;;;;;;;10.40;1.67;;;;;;;12.90;91.66;97779.97;8255063;28;20054;-59
2023/03/10 08:32:37;;;;;;;10.50;1.75;;;;;;;12.89;91.91;97776.41;8265663;28;20044;-60
2023/03/10 08:36:38;;;;;;;7.40;1.50;;;;;;;12.78;93.47;97776.31;8276533;28;20066;-59
2023/03/10 08:40:39;;;;;;;7.65;1.20;;;;;;;12.92;92.27;97765.13;8288847;28;20049;-60
2023/03/10 08:44:40;;;;;;;5.47;1.20;;;;;;;13.07;91.25;97762.09;8288332;28;20095;-59
2023/03/10 08:48:41;;;;;;;10.00;1.58;;;;;;;13.53;89.38;97763.28;8289577;28;20374;-60
2023/03/10 08:52:41;;;;;;;5.88;1.40;;;;;;;13.77;87.64;97761.50;8289697;28;20042;-60
2023/03/10 08:56:41;;;;;;;8.60;1.17;;;;;;;13.89;86.76;97759.69;8287215;28;20034;-60
2023/03/10 09:00:42;;;;;;;9.27;1.48;;;;;;;14.24;87.66;97766.13;8276271;28;20042;-60
2023/03/10 09:04:43;;;;;;;6.55;1.50;;;;;;;14.54;84.05;97772.38;8289305;28;20412;-60
2023/03/10 09:08:43;;;;;;;7.72;1.27;;;;;;;14.64;81.62;97769.91;8288535;28;20038;-59
2023/03/10 09:12:44;;;;;;;6.60;0.90;;;;;;;14.49;79.41;97776.84;8287631;28;20117;-60
2023/03/10 09:16:44;;;;;;;7.90;1.27;;;;;;;14.51;78.57;97781.00;8283193;28;20033;-60
2023/03/10 09:20:45;;;;;;;4.78;0.85;;;;;;;14.56;78.67;97786.56;8292903;28;20087;-61
2023/03/10 09:24:45;;;;;;;7.38;1.52;;;;;;;14.53;77.21;97781.59;8295249;28;20038;-60
2023/03/10 09:28:48;;;;;;;5.88;1.35;;;;;;;15.73;74.51;97789.97;8293405;28;20045;-60
2023/03/10 09:32:48;;;;;;;5.40;1.05;;;;;;;15.12;75.05;97781.44;8314347;28;20053;-60
2023/03/10 09:36:49;;;;;;;8.50;1.25;;;;;;;14.67;77.27;97785.75;8317634;28;20037;-60
2023/03/10 09:41:02;;;;;;;5.15;0.93;;;;;;;14.64;77.65;97788.94;8293124;28;20037;-60
2023/03/10 09:45:19;;;;;;;6.03;0.82;;;;;;;15.60;73.88;97783.94;8293596;28;20050;-60
2023/03/10 09:49:46;;;;;;;6.90;1.45;;;;;;;16.05;72.73;97776.75;8288867;28;20400;-55
2023/03/10 09:58:38;;;;;;;3.45;0.68;;;;;;;15.20;73.80;97775.66;8412129;27;20944;-54
2023/03/10 10:02:42;;;;;;;4.68;0.57;;;;;;;14.83;75.61;97771.50;8378533;27;20385;-54
2023/03/10 10:06:45;;;;;;;4.68;0.95;;;;;;;14.64;76.83;97772.63;8362223;28;20132;-55
2023/03/10 10:10:51;;;;;;;4.32;1.00;;;;;;;14.76;76.32;97770.75;8362261;28;20048;-55
2023/03/10 10:15:00;;;;;;;3.67;0.60;;;;;;;14.82;75.30;97775.25;8362648;28;20037;-54
2023/03/10 10:19:13;;;;;;;5.50;0.90;;;;;;;14.42;75.75;97778.84;8373693;28;20040;-54
2023/03/10 10:23:31;;;;;;;4.50;0.95;;;;;;;14.04;78.71;97779.13;8407397;28;20037;-56
2023/03/10 10:27:31;;;;;;;6.93;0.95;;;;;;;13.94;79.59;97783.44;8384605;28;20047;-55
2023/03/10 10:31:33;;;;;;;3.35;0.80;;;;;;;13.87;79.28;97786.22;8363366;28;20037;-54
2023/03/10 10:35:44;;;;;;;4.45;0.93;;;;;;;13.78;80.19;97790.31;8348910;28;20052;-54
2023/03/10 10:39:48;;;;;;;3.97;0.75;;;;;;;13.62;81.34;97799.06;8368787;28;20063;-55
2023/03/10 10:43:49;;;;;;;3.55;1.10;;;;;;;13.55;80.96;97799.13;8382627;28;20037;-59
2023/03/10 10:47:50;;;;;;;3.70;1.30;;;;;;;13.37;85.50;97801.03;8379713;28;20043;-60
2023/03/10 10:52:00;;;;;;;3.03;0.70;;;;;;;13.05;88.35;97805.69;8379516;28;20033;-60
2023/03/10 10:56:05;;;;;;;3.60;0.70;;;;;;;12.96;86.56;97787.22;8380386;28;20064;-60
2023/03/10 11:00:27;;;;;;;3.35;0.40;;;;;;;13.05;87.10;97797.56;8376806;28;20503;-59
2023/03/10 11:04:40;;;;;;;5.25;0.73;;;;;;;13.00;85.44;97791.16;8400501;28;20478;-56
2023/03/10 11:08:44;;;;;;;1.65;0.55;;;;;;;13.13;86.42;97788.31;8364790;28;20037;-59
2023/03/10 11:12:55;;;;;;;1.90;0.40;;;;;;;13.02;88.81;97787.16;8343054;28;20040;-58
2023/03/10 11:17:02;;;;;;;2.10;0.60;;;;;;;12.75;90.74;97784.88;8342240;28;20403;-59
2023/03/10 11:21:19;;;;;;;1.15;0.40;;;;;;;12.50;95.25;97786.75;8332539;28;20048;-59
2023/03/10 11:30:08;;;;;;;3.08;0.65;;;;;;;12.19;98.62;97795.69;8307501;27;20395;-58
2023/03/10 11:34:29;;;;;;;2.30;0.43;;;;;;;11.90;100.00;97797.06;8287359;28;20057;-58
2023/03/10 11:38:41;;;;;;;3.08;0.50;;;;;;;11.79;100.00;97789.66;8297601;28;20038;-58
2023/03/10 11:42:58;;;;;;;0.82;0.40;;;;;;;11.83;100.00;97793.56;8278064;28;20045;-58
2023/03/10 11:47:17;;;;;;;1.40;0.35;;;;;;;11.86;100.00;97790.44;8283856;28;20049;-58
2023/03/10 11:51:28;;;;;;;1.60;0.50;;;;;;;11.87;100.00;97792.09;8281236;28;20048;-59
2023/03/10 11:55:30;;;;;;;0.70;0.32;;;;;;;11.87;100.00;97781.25;8289043;28;20048;-60
2023/03/10 11:59:35;;;;;;;1.27;0.30;;;;;;;11.85;100.00;97766.28;8280311;28;20035;-59
2023/03/10 12:03:48;;;;;;;0.55;0.40;;;;;;;11.84;100.00;97745.69;8287118;28;20042;-59
2023/03/10 12:07:52;;;;;;;0.93;0.55;;;;;;;11.73;100.00;97736.38;8284526;28;20045;-58
2023/03/10 12:11:54;;;;;;;0.57;0.43;;;;;;;11.73;100.00;97730.97;8284842;28;20046;-58
2023/03/10 12:15:59;;;;;;;0.90;0.20;;;;;;;11.70;100.00;97742.22;8283604;28;20072;-59
2023/03/10 12:24:45;;;;;;;0.25;0.20;;;;;;;11.90;100.00;97726.69;8383327;27;20411;-58
2023/03/10 12:28:46;;;;;;;0.75;0.30;;;;;;;11.99;100.00;97729.16;8337763;28;20049;-58
2023/03/10 12:32:46;;;;;;;0.30;0.20;;;;;;;12.13;100.00;97725.34;8358052;28;20055;-58
2023/03/10 12:36:51;;;;;;;1.27;0.10;;;;;;;12.10;100.00;97728.47;8382537;28;20487;-58
2023/03/10 12:40:52;;;;;;;0.20;0.10;;;;;;;12.17;100.00;97718.44;8383034;28;20112;-58
2023/03/10 12:45:17;;;;;;;0.90;0.30;;;;;;;12.19;100.00;97708.19;8382242;28;20052;-58
2023/03/10 12:54:15;;;;;;;1.13;0.40;;;;;;;12.19;100.00;97702.75;8299451;27;20681;-58
2023/03/10 12:58:21;;;;;;;0.88;0.40;;;;;;;12.13;100.00;97692.84;8305292;28;20041;-56
2023/03/10 13:02:34;;;;;;;0.63;0.20;;;;;;;12.18;100.00;97682.16;8321872;28;20033;-58
2023/03/10 13:06:38;;;;;;;0.10;0.10;;;;;;;12.32;100.00;97684.53;8301933;28;20041;-60
2023/03/10 13:10:38;;;;;;;0.05;0.05;;;;;;;12.35;100.00;97699.53;8304286;28;20037;-61
2023/03/10 13:14:40;;;;;;;0.28;0.20;;;;;;;12.34;100.00;97703.28;8314698;28;20045;-58
2023/03/10 13:18:47;;;;;;;0.60;0.60;;;;;;;12.31;100.00;97714.56;8312476;28;20029;-58
2023/03/10 13:22:57;;;;;;;1.27;0.20;;;;;;;12.23;100.00;97704.00;8308445;28;20034;-58
2023/03/10 13:27:18;;;;;;;0.40;0.20;;;;;;;12.10;100.00;97698.69;8313102;28;20483;-60
2023/03/10 13:31:22;;;;;;;0.28;0.22;;;;;;;11.99;100.00;97697.50;8314100;28;20037;-60
2023/03/10 13:35:30;;;;;;;0.60;0.55;;;;;;;11.84;100.00;97722.16;8313412;28;20369;-60
2023/03/10 13:39:30;;;;;;;1.08;0.77;;;;;;;11.66;100.00;97723.94;8309816;28;20034;-57
2023/03/10 13:43:40;;;;;;;0.90;0.70;;;;;;;11.34;100.00;97741.91;8309774;28;20111;-58
2023/03/10 13:47:42;;;;;;;3.13;0.70;;;;;;;11.27;100.00;97756.50;8312525;28;20044;-57
2023/03/10 13:51:56;;;;;;;0.80;0.73;;;;;;;11.30;100.00;97773.13;8306746;28;20049;-58
2023/03/10 13:55:56;;;;;;;0.50;0.30;;;;;;;11.19;100.00;97781.88;8251860;28;20051;-60
2023/03/10 13:59:58;;;;;;;1.00;0.40;;;;;;;11.29;100.00;97806.63;8270201;28;20137;-60
2023/03/10 14:04:04;;;;;;;1.77;0.30;;;;;;;11.30;98.31;97816.41;8282688;28;20042;-60
2023/03/10 14:08:06;;;;;;;0.32;0.13;;;;;;;11.16;97.03;97840.97;8267573;28;20038;-60
2023/03/10 14:12:27;;;;;;;1.40;0.30;;;;;;;11.04;96.38;97842.66;8273059;28;20038;-59
2023/03/10 14:20:56;;;;;;;0.75;0.45;;;;;;;10.76;98.39;97845.53;8406340;27;20419;-60
2023/03/10 14:24:59;;;;;;;0.75;0.30;;;;;;;10.65;96.52;97870.50;8413640;28;20056;-57
2023/03/10 14:29:01;;;;;;;1.20;0.30;;;;;;;10.65;97.45;97865.09;8416244;28;20032;-57
2023/03/10 14:33:02;;;;;;;0.40;0.40;;;;;;;10.82;97.79;97876.31;8430706;28;20043;-57
2023/03/10 14:37:02;;;;;;;0.85;0.50;;;;;;;10.74;100.00;97884.63;8415328;28;20500;-59
2023/03/10 14:41:03;;;;;;;1.58;0.50;;;;;;;10.73;100.00;97889.19;8408840;28;20532;-59
2023/03/10 14:45:07;;;;;;;2.45;0.75;;;;;;;10.50;99.79;97883.34;8413738;28;20040;-59
2023/03/10 14:49:13;;;;;;;3.58;0.90;;;;;;;10.39;100.00;97901.97;8410895;28;20406;-59
2023/03/10 14:53:18;;;;;;;3.63;1.45;;;;;;;10.30;98.47;97908.59;8410785;28;20462;-58
2023/03/10 14:57:21;;;;;;;4.90;1.00;;;;;;;9.96;99.43;97885.19;8403175;27;20037;-59
2023/03/10 15:01:21;;;;;;;2.28;1.45;;;;;;;9.58;100.00;97889.38;8383808;27;20277;-59
2023/03/10 15:05:25;;;;;;;2.67;1.17;;;;;;;9.41;100.00;97891.53;8417892;27;20047;-59
2023/03/10 15:09:26;;;;;;;1.58;1.10;;;;;;;9.32;100.00;97886.47;8384152;28;20044;-57
2023/03/10 15:13:26;;;;;;;1.85;1.08;;;;;;;9.33;100.00;97904.34;8402051;27;20179;-57
2023/03/10 15:17:27;;;;;;;5.28;1.45;;;;;;;9.34;100.00;97911.38;8385592;28;20041;-57
2023/03/10 15:21:27;;;;;;;2.20;0.98;;;;;;;9.38;100.00;97912.66;8378327;28;20041;-58
2023/03/10 15:25:28;;;;;;;1.85;1.15;;;;;;;9.44;100.00;97922.66;8413573;28;20044;-59
2023/03/10 15:29:29;;;;;;;1.63;1.05;;;;;;;9.64;100.00;97920.94;8371222;28;20088;-60
2023/03/10 15:33:29;;;;;;;1.73;1.17;;;;;;;9.66;100.00;97910.75;8354905;28;20429;-59
2023/03/10 15:37:30;;;;;;;2.60;0.93;;;;;;;9.56;100.00;97904.91;8355651;28;20503;-57
2023/03/10 15:41:35;;;;;;;2.72;0.88;;;;;;;9.41;100.00;97910.41;8355451;28;20539;-57
2023/03/10 15:45:40;;;;;;;2.42;0.70;;;;;;;9.37;100.00;97917.19;8354279;28;20284;-57
2023/03/10 15:49:40;;;;;;;1.92;0.70;;;;;;;9.36;100.00;97920.09;8364183;28;20036;-57
2023/03/10 15:53:40;;;;;;;1.38;0.77;;;;;;;9.35;100.00;97937.31;8356689;28;20052;-57
2023/03/10 15:57:43;;;;;;;2.03;0.60;;;;;;;9.21;100.00;97947.16;8356820;28;20045;-59
2023/03/10 16:01:43;;;;;;;2.25;0.80;;;;;;;9.11;100.00;97953.91;8353719;28;20091;-59
2023/03/10 16:05:46;;;;;;;0.80;0.60;;;;;;;9.05;100.00;97960.06;8351999;28;20040;-56
2023/03/10 16:09:47;;;;;;;1.10;0.60;;;;;;;8.92;100.00;97966.19;8355802;28;20099;-58
2023/03/10 16:13:48;;;;;;;1.70;0.95;;;;;;;8.79;100.00;97976.81;8353058;28;20532;-58
2023/03/10 16:17:49;;;;;;;1.40;0.70;;;;;;;8.70;100.00;98015.69;8354046;28;20131;-58
2023/03/10 16:21:51;;;;;;;1.17;0.63;;;;;;;8.56;100.00;98038.06;8342733;28;20034;-58
2023/03/10 16:26:13;;;;;;;1.15;0.60;;;;;;;8.08;100.00;98095.97;8354566;28;20321;-58
2023/03/10 16:30:15;;;;;;;0.30;0.30;;;;;;;6.86;100.00;98152.69;8348583;28;20580;-55
2023/03/10 16:34:15;;;;;;;0.35;0.30;;;;;;;6.25;100.00;98213.44;8360455;28;20073;-57
2023/03/10 16:38:15;;;;;;;0.47;0.47;;;;;;;5.55;100.00;98231.00;8360946;28;20048;-57
2023/03/10 16:42:16;;;;;;;2.50;0.55;;;;;;;5.02;100.00;98303.63;8335753;28;20041;-57
2023/03/10 16:46:23;;;;;;;0.60;0.40;;;;;;;4.90;100.00;98341.53;8351013;28;20045;-57
2023/03/10 16:50:24;;;;;;;1.55;0.90;;;;;;;4.60;100.00;98377.63;8343057;28;20561;-58
2023/03/10 16:54:24;;;;;;;1.38;1.23;;;;;;;4.32;100.00;98415.31;8342330;28;20446;-58
2023/03/10 16:58:25;;;;;;;2.58;1.92;;;;;;;4.15;100.00;98432.22;8340988;28;20078;-58
2023/03/10 17:02:25;;;;;;;2.42;1.70;;;;;;;4.06;100.00;98456.19;8355741;28;20047;-58
2023/03/10 17:06:29;;;;;;;2.40;1.90;;;;;;;3.90;100.00;98441.78;8336471;28;20048;-59
2023/03/10 17:10:30;;;;;;;56.60;5.30;;;;;;;3.86;100.00;98473.34;8365395;28;20525;-59
2023/03/10 17:14:31;;;;;;;3.63;2.15;;;;;;;3.62;100.00;98539.81;8343927;28;20041;-59
2023/03/10 17:18:31;;;;;;;3.65;2.13;;;;;;;3.48;100.00;98558.13;8356401;28;20052;-59
2023/03/10 17:22:31;;;;;;;2.85;2.55;;;;;;;3.60;100.00;98583.69;8363074;28;20051;-59
2023/03/10 17:26:33;;;;;;;2.65;1.85;;;;;;;3.61;100.00;98591.56;8362522;28;20071;-59
2023/03/10 17:30:33;;;;;;;3.08;2.00;;;;;;;3.49;100.00;98599.88;8352121;28;20049;-59
2023/03/10 17:34:34;;;;;;;3.67;2.30;;;;;;;3.52;100.00;98624.47;8359304;28;20043;-59
2023/03/10 17:38:35;;;;;;;3.20;1.98;;;;;;;3.51;100.00;98652.13;8356551;28;20075;-59
2023/03/10 17:42:36;;;;;;;4.35;2.40;;;;;;;3.53;100.00;98671.56;8345629;28;20067;-59
2023/03/10 17:46:39;;;;;;;4.55;2.60;;;;;;;3.54;100.00;98689.25;8364850;28;20052;-59
2023/03/10 17:50:46;;;;;;;5.03;2.93;;;;;;;3.52;100.00;98731.31;8338758;28;20029;-59
2023/03/10 17:54:46;;;;;;;4.65;2.40;;;;;;;3.65;100.00;98763.91;8361188;28;20033;-59
2023/03/10 17:58:47;;;;;;;3.63;2.75;;;;;;;3.59;100.00;98785.84;8345143;28;20098;-59
2023/03/10 18:02:47;;;;;;;4.72;2.78;;;;;;;3.66;100.00;98797.66;8357364;28;20044;-59
2023/03/10 18:06:48;;;;;;;4.90;2.65;;;;;;;3.65;100.00;98830.72;8351293;28;20592;-59
2023/03/10 18:10:58;;;;;;;4.90;2.65;;;;;;;3.63;100.00;98846.03;8342021;28;20048;-59
2023/03/10 18:14:59;;;;;;;5.43;2.35;;;;;;;3.61;100.00;98869.38;8349552;28;20499;-59
2023/03/10 18:19:00;;;;;;;6.15;2.97;;;;;;;3.57;100.00;98894.66;8357791;28;20408;-59
2023/03/10 18:23:00;;;;;;;5.75;2.85;;;;;;;3.63;100.00;98915.47;8346208;28;20113;-59
2023/03/10 18:27:01;;;;;;;3.65;2.65;;;;;;;3.71;100.00;98934.38;8368389;28;20043;-59
2023/03/10 18:31:06;;;;;;;3.05;2.38;;;;;;;3.77;100.00;98954.34;8358639;28;20040;-59
2023/03/10 18:35:09;;;;;;;4.30;2.75;;;;;;;3.79;100.00;98968.41;8376863;28;20044;-59
2023/03/10 18:39:10;;;;;;;8.00;3.07;;;;;;;3.74;100.00;98987.53;8378553;28;20110;-59
2023/03/10 18:43:10;;;;;;;3.65;3.13;;;;;;;3.68;100.00;98996.09;8383013;28;20081;-59
2023/03/10 18:47:12;;;;;;;7.25;3.60;;;;;;;3.59;100.00;99004.91;8372785;28;20041;-59
2023/03/10 18:51:12;;;;;;;6.65;4.28;;;;;;;3.60;100.00;99011.09;8346315;28;20131;-59
2023/03/10 18:55:13;;;;;;;4.40;3.92;;;;;;;3.68;100.00;99014.78;8344890;28;20037;-59
2023/03/10 18:59:13;;;;;;;8.57;4.07;;;;;;;3.65;100.00;99041.78;8382572;28;20274;-58
2023/03/10 19:03:15;;;;;;;5.25;3.65;;;;;;;3.69;100.00;99053.88;8344252;28;20137;-57
2023/03/10 19:07:19;;;;;;;4.65;2.53;;;;;;;3.72;100.00;99058.13;8379708;28;20110;-54
2023/03/10 19:11:22;;;;;;;2.13;1.90;;;;;;;3.74;98.53;99061.50;8351249;28;20048;-54
2023/03/10 19:15:23;;;;;;;79.00;5.53;;;;;;;3.74;96.84;99051.66;8356864;28;20048;-53
2023/03/10 19:19:23;;;;;;;1.45;1.35;;;;;;;3.76;96.17;99080.94;8357187;28;20048;-53
2023/03/10 19:23:24;;;;;;;2.25;1.50;;;;;;;3.79;97.54;99110.88;8357493;28;20589;-53